sensor_id;sensor_type;location;lat;lon;timestamp;P1;durP1;ratioP1;P2;durP2;ratioP2
48092;SDS011;33873;47.442;18.902;2022-08-14T00:02:14;8.95;;;7.03;;
48092;SDS011;33873;47.442;18.902;2022-08-14T00:04:42;11.93;;;7.68;;
48092;SDS011;33873;47.442;18.902;2022-08-14T00:07:11;10.82;;;7.72;;
48092;SDS011;33873;47.442;18.902;2022-08-14T00:09:41;10.13;;;7.87;;
48092;SDS011;33873;47.442;18.902;2022-08-14T00:12:34;9.30;;;6.60;;
48092;SDS011;33873;47.442;18.902;2022-08-14T00:15:11;7.57;;;5.30;;
48092;SDS011;33873;47.442;18.902;2022-08-14T00:17:43;9.45;;;7.22;;
48092;SDS011;33873;47.442;18.902;2022-08-14T00:20:21;11.30;;;8.13;;
48092;SDS011;33873;47.442;18.902;2022-08-14T00:22:58;11.18;;;8.45;;
48092;SDS011;33873;47.442;18.902;2022-08-14T00:25:38;10.07;;;8.05;;
48092;SDS011;33873;47.442;18.902;2022-08-14T00:28:09;13.75;;;7.53;;
48092;SDS011;33873;47.442;18.902;2022-08-14T00:33:13;11.07;;;8.27;;
48092;SDS011;33873;47.442;18.902;2022-08-14T00:35:45;10.68;;;7.75;;
48092;SDS011;33873;47.442;18.902;2022-08-14T00:38:33;12.73;;;8.30;;
48092;SDS011;33873;47.442;18.902;2022-08-14T00:41:02;14.48;;;9.07;;
48092;SDS011;33873;47.442;18.902;2022-08-14T00:43:32;9.70;;;7.55;;
48092;SDS011;33873;47.442;18.902;2022-08-14T00:46:03;12.77;;;7.78;;
48092;SDS011;33873;47.442;18.902;2022-08-14T00:48:35;10.38;;;7.93;;
48092;SDS011;33873;47.442;18.902;2022-08-14T00:51:05;10.63;;;7.32;;
48092;SDS011;33873;47.442;18.902;2022-08-14T00:53:35;9.50;;;6.20;;
48092;SDS011;33873;47.442;18.902;2022-08-14T00:56:05;9.25;;;7.12;;
48092;SDS011;33873;47.442;18.902;2022-08-14T00:58:35;11.93;;;8.02;;
48092;SDS011;33873;47.442;18.902;2022-08-14T01:01:12;10.68;;;7.70;;
48092;SDS011;33873;47.442;18.902;2022-08-14T01:03:43;9.30;;;6.90;;
48092;SDS011;33873;47.442;18.902;2022-08-14T01:06:16;11.48;;;8.32;;
48092;SDS011;33873;47.442;18.902;2022-08-14T01:08:44;9.73;;;7.30;;
48092;SDS011;33873;47.442;18.902;2022-08-14T01:11:26;10.10;;;7.90;;
48092;SDS011;33873;47.442;18.902;2022-08-14T01:14:02;9.50;;;6.70;;
48092;SDS011;33873;47.442;18.902;2022-08-14T01:16:51;11.23;;;8.25;;
48092;SDS011;33873;47.442;18.902;2022-08-14T01:19:22;13.27;;;8.15;;
48092;SDS011;33873;47.442;18.902;2022-08-14T01:22:10;10.18;;;6.22;;
48092;SDS011;33873;47.442;18.902;2022-08-14T01:24:40;10.57;;;8.15;;
48092;SDS011;33873;47.442;18.902;2022-08-14T01:27:17;11.95;;;8.30;;
48092;SDS011;33873;47.442;18.902;2022-08-14T01:29:46;11.95;;;8.80;;
48092;SDS011;33873;47.442;18.902;2022-08-14T01:32:31;10.32;;;8.40;;
48092;SDS011;33873;47.442;18.902;2022-08-14T01:35:08;11.80;;;8.32;;
48092;SDS011;33873;47.442;18.902;2022-08-14T01:37:57;7.68;;;4.85;;
48092;SDS011;33873;47.442;18.902;2022-08-14T01:40:26;8.02;;;5.43;;
48092;SDS011;33873;47.442;18.902;2022-08-14T01:43:08;9.95;;;7.20;;
48092;SDS011;33873;47.442;18.902;2022-08-14T01:45:48;10.48;;;7.35;;
48092;SDS011;33873;47.442;18.902;2022-08-14T01:48:33;10.27;;;7.70;;
48092;SDS011;33873;47.442;18.902;2022-08-14T01:51:04;9.60;;;7.07;;
48092;SDS011;33873;47.442;18.902;2022-08-14T01:53:47;12.60;;;8.80;;
48092;SDS011;33873;47.442;18.902;2022-08-14T01:56:26;10.77;;;8.35;;
48092;SDS011;33873;47.442;18.902;2022-08-14T01:59:07;12.32;;;8.52;;
48092;SDS011;33873;47.442;18.902;2022-08-14T02:01:41;14.32;;;8.18;;
48092;SDS011;33873;47.442;18.902;2022-08-14T02:04:31;13.57;;;8.43;;
48092;SDS011;33873;47.442;18.902;2022-08-14T02:07:20;14.82;;;8.25;;
48092;SDS011;33873;47.442;18.902;2022-08-14T02:10:09;12.10;;;8.82;;
48092;SDS011;33873;47.442;18.902;2022-08-14T02:12:42;11.15;;;8.02;;
48092;SDS011;33873;47.442;18.902;2022-08-14T02:15:20;9.77;;;6.97;;
48092;SDS011;33873;47.442;18.902;2022-08-14T02:17:48;10.20;;;8.23;;
48092;SDS011;33873;47.442;18.902;2022-08-14T02:20:16;10.25;;;8.10;;
48092;SDS011;33873;47.442;18.902;2022-08-14T02:22:46;9.98;;;5.75;;
48092;SDS011;33873;47.442;18.902;2022-08-14T02:25:20;11.60;;;7.28;;
48092;SDS011;33873;47.442;18.902;2022-08-14T02:27:51;12.48;;;6.75;;
48092;SDS011;33873;47.442;18.902;2022-08-14T02:30:42;10.50;;;7.87;;
48092;SDS011;33873;47.442;18.902;2022-08-14T02:33:11;11.02;;;7.50;;
48092;SDS011;33873;47.442;18.902;2022-08-14T02:35:40;10.88;;;7.62;;
48092;SDS011;33873;47.442;18.902;2022-08-14T02:38:14;9.52;;;6.30;;
48092;SDS011;33873;47.442;18.902;2022-08-14T02:40:57;9.07;;;6.75;;
48092;SDS011;33873;47.442;18.902;2022-08-14T02:43:25;12.57;;;7.10;;
48092;SDS011;33873;47.442;18.902;2022-08-14T02:46:11;15.05;;;8.45;;
48092;SDS011;33873;47.442;18.902;2022-08-14T02:48:47;12.23;;;7.35;;
48092;SDS011;33873;47.442;18.902;2022-08-14T02:51:32;8.48;;;5.93;;
48092;SDS011;33873;47.442;18.902;2022-08-14T02:54:01;14.07;;;8.35;;
48092;SDS011;33873;47.442;18.902;2022-08-14T02:56:30;11.38;;;8.32;;
48092;SDS011;33873;47.442;18.902;2022-08-14T02:59:19;10.43;;;7.43;;
48092;SDS011;33873;47.442;18.902;2022-08-14T03:01:47;12.25;;;7.93;;
48092;SDS011;33873;47.442;18.902;2022-08-14T03:04:21;8.23;;;6.20;;
48092;SDS011;33873;47.442;18.902;2022-08-14T03:06:48;10.35;;;6.65;;
48092;SDS011;33873;47.442;18.902;2022-08-14T03:09:35;12.10;;;8.57;;
48092;SDS011;33873;47.442;18.902;2022-08-14T03:12:23;12.75;;;7.82;;
48092;SDS011;33873;47.442;18.902;2022-08-14T03:14:59;10.80;;;8.13;;
48092;SDS011;33873;47.442;18.902;2022-08-14T03:17:40;12.48;;;8.10;;
48092;SDS011;33873;47.442;18.902;2022-08-14T03:20:25;10.02;;;7.22;;
48092;SDS011;33873;47.442;18.902;2022-08-14T03:22:55;13.65;;;8.82;;
48092;SDS011;33873;47.442;18.902;2022-08-14T03:25:27;11.68;;;8.55;;
48092;SDS011;33873;47.442;18.902;2022-08-14T03:27:57;13.23;;;8.20;;
48092;SDS011;33873;47.442;18.902;2022-08-14T03:30:30;12.48;;;9.02;;
48092;SDS011;33873;47.442;18.902;2022-08-14T03:33:10;11.82;;;6.37;;
48092;SDS011;33873;47.442;18.902;2022-08-14T03:35:39;12.23;;;8.90;;
48092;SDS011;33873;47.442;18.902;2022-08-14T03:38:28;11.90;;;6.82;;
48092;SDS011;33873;47.442;18.902;2022-08-14T03:41:21;9.48;;;6.37;;
48092;SDS011;33873;47.442;18.902;2022-08-14T03:43:51;10.63;;;7.97;;
48092;SDS011;33873;47.442;18.902;2022-08-14T03:46:41;10.50;;;8.10;;
48092;SDS011;33873;47.442;18.902;2022-08-14T03:49:22;13.13;;;9.70;;
48092;SDS011;33873;47.442;18.902;2022-08-14T03:51:56;12.63;;;8.30;;
48092;SDS011;33873;47.442;18.902;2022-08-14T03:54:27;11.82;;;8.65;;
48092;SDS011;33873;47.442;18.902;2022-08-14T03:56:55;16.08;;;8.90;;
48092;SDS011;33873;47.442;18.902;2022-08-14T03:59:32;13.13;;;9.50;;
48092;SDS011;33873;47.442;18.902;2022-08-14T04:02:01;12.80;;;9.15;;
48092;SDS011;33873;47.442;18.902;2022-08-14T04:04:49;15.10;;;10.48;;
48092;SDS011;33873;47.442;18.902;2022-08-14T04:07:18;11.73;;;7.93;;
48092;SDS011;33873;47.442;18.902;2022-08-14T04:09:48;17.90;;;8.70;;
48092;SDS011;33873;47.442;18.902;2022-08-14T04:12:19;14.70;;;9.02;;
48092;SDS011;33873;47.442;18.902;2022-08-14T04:14:52;12.02;;;6.97;;
48092;SDS011;33873;47.442;18.902;2022-08-14T04:17:21;11.43;;;8.77;;
48092;SDS011;33873;47.442;18.902;2022-08-14T04:19:48;11.60;;;8.55;;
48092;SDS011;33873;47.442;18.902;2022-08-14T04:22:16;10.23;;;6.87;;
48092;SDS011;33873;47.442;18.902;2022-08-14T04:24:48;13.62;;;9.50;;
48092;SDS011;33873;47.442;18.902;2022-08-14T04:27:17;11.98;;;7.80;;
48092;SDS011;33873;47.442;18.902;2022-08-14T04:29:44;15.93;;;10.18;;
48092;SDS011;33873;47.442;18.902;2022-08-14T04:32:12;12.32;;;9.18;;
48092;SDS011;33873;47.442;18.902;2022-08-14T04:35:01;10.75;;;8.13;;
48092;SDS011;33873;47.442;18.902;2022-08-14T04:37:36;13.18;;;7.47;;
48092;SDS011;33873;47.442;18.902;2022-08-14T04:40:23;14.80;;;9.68;;
48092;SDS011;33873;47.442;18.902;2022-08-14T04:43:09;10.07;;;7.00;;
48092;SDS011;33873;47.442;18.902;2022-08-14T04:46:07;14.02;;;9.35;;
48092;SDS011;33873;47.442;18.902;2022-08-14T04:49:02;10.60;;;7.50;;
48092;SDS011;33873;47.442;18.902;2022-08-14T04:51:34;12.93;;;10.15;;
48092;SDS011;33873;47.442;18.902;2022-08-14T04:54:13;11.73;;;9.05;;
48092;SDS011;33873;47.442;18.902;2022-08-14T04:56:43;15.27;;;11.90;;
48092;SDS011;33873;47.442;18.902;2022-08-14T04:59:11;16.25;;;11.60;;
48092;SDS011;33873;47.442;18.902;2022-08-14T05:01:39;14.35;;;11.00;;
48092;SDS011;33873;47.442;18.902;2022-08-14T05:04:14;13.82;;;10.48;;
48092;SDS011;33873;47.442;18.902;2022-08-14T05:06:47;14.85;;;10.60;;
48092;SDS011;33873;47.442;18.902;2022-08-14T05:09:21;14.57;;;11.27;;
48092;SDS011;33873;47.442;18.902;2022-08-14T05:11:50;13.57;;;11.10;;
48092;SDS011;33873;47.442;18.902;2022-08-14T05:14:19;13.77;;;10.60;;
48092;SDS011;33873;47.442;18.902;2022-08-14T05:17:11;19.08;;;10.15;;
48092;SDS011;33873;47.442;18.902;2022-08-14T05:19:39;14.55;;;10.20;;
48092;SDS011;33873;47.442;18.902;2022-08-14T05:22:27;15.60;;;10.63;;
48092;SDS011;33873;47.442;18.902;2022-08-14T05:24:55;14.75;;;10.50;;
48092;SDS011;33873;47.442;18.902;2022-08-14T05:27:22;12.82;;;9.77;;
48092;SDS011;33873;47.442;18.902;2022-08-14T05:29:51;13.95;;;10.73;;
48092;SDS011;33873;47.442;18.902;2022-08-14T05:32:21;14.18;;;9.88;;
48092;SDS011;33873;47.442;18.902;2022-08-14T05:34:55;17.77;;;11.20;;
48092;SDS011;33873;47.442;18.902;2022-08-14T05:37:25;14.45;;;9.48;;
48092;SDS011;33873;47.442;18.902;2022-08-14T05:39:54;12.32;;;9.70;;
48092;SDS011;33873;47.442;18.902;2022-08-14T05:42:22;13.68;;;9.80;;
48092;SDS011;33873;47.442;18.902;2022-08-14T05:44:58;13.27;;;9.50;;
48092;SDS011;33873;47.442;18.902;2022-08-14T05:47:25;12.82;;;9.88;;
48092;SDS011;33873;47.442;18.902;2022-08-14T05:50:00;12.15;;;9.30;;
48092;SDS011;33873;47.442;18.902;2022-08-14T05:52:28;12.23;;;9.57;;
48092;SDS011;33873;47.442;18.902;2022-08-14T05:55:06;11.68;;;9.02;;
48092;SDS011;33873;47.442;18.902;2022-08-14T05:57:45;13.00;;;8.77;;
48092;SDS011;33873;47.442;18.902;2022-08-14T06:00:15;13.15;;;9.02;;
48092;SDS011;33873;47.442;18.902;2022-08-14T06:02:59;14.50;;;9.00;;
48092;SDS011;33873;47.442;18.902;2022-08-14T06:05:33;13.45;;;8.85;;
48092;SDS011;33873;47.442;18.902;2022-08-14T06:08:05;10.60;;;8.68;;
48092;SDS011;33873;47.442;18.902;2022-08-14T06:11:02;11.18;;;8.75;;
48092;SDS011;33873;47.442;18.902;2022-08-14T06:13:33;11.30;;;8.68;;
48092;SDS011;33873;47.442;18.902;2022-08-14T06:16:15;10.90;;;8.30;;
48092;SDS011;33873;47.442;18.902;2022-08-14T06:18:46;12.50;;;8.82;;
48092;SDS011;33873;47.442;18.902;2022-08-14T06:21:20;10.68;;;8.23;;
48092;SDS011;33873;47.442;18.902;2022-08-14T06:23:49;10.85;;;8.35;;
48092;SDS011;33873;47.442;18.902;2022-08-14T06:26:17;10.77;;;8.52;;
48092;SDS011;33873;47.442;18.902;2022-08-14T06:28:49;11.98;;;8.70;;
48092;SDS011;33873;47.442;18.902;2022-08-14T06:31:19;12.07;;;7.70;;
48092;SDS011;33873;47.442;18.902;2022-08-14T06:33:47;11.35;;;8.63;;
48092;SDS011;33873;47.442;18.902;2022-08-14T06:36:35;11.25;;;8.70;;
48092;SDS011;33873;47.442;18.902;2022-08-14T06:39:06;10.85;;;7.55;;
48092;SDS011;33873;47.442;18.902;2022-08-14T06:41:37;10.43;;;7.60;;
48092;SDS011;33873;47.442;18.902;2022-08-14T06:44:25;15.90;;;11.25;;
48092;SDS011;33873;47.442;18.902;2022-08-14T06:47:02;10.70;;;7.30;;
48092;SDS011;33873;47.442;18.902;2022-08-14T06:49:31;10.20;;;7.20;;
48092;SDS011;33873;47.442;18.902;2022-08-14T06:52:12;10.95;;;6.25;;
48092;SDS011;33873;47.442;18.902;2022-08-14T06:54:42;9.52;;;7.15;;
48092;SDS011;33873;47.442;18.902;2022-08-14T06:57:11;11.15;;;7.12;;
48092;SDS011;33873;47.442;18.902;2022-08-14T06:59:40;11.95;;;7.60;;
48092;SDS011;33873;47.442;18.902;2022-08-14T07:02:08;9.95;;;6.55;;
48092;SDS011;33873;47.442;18.902;2022-08-14T07:04:55;10.75;;;7.20;;
48092;SDS011;33873;47.442;18.902;2022-08-14T07:07:49;10.23;;;7.35;;
48092;SDS011;33873;47.442;18.902;2022-08-14T07:10:18;11.25;;;7.62;;
48092;SDS011;33873;47.442;18.902;2022-08-14T07:12:51;11.40;;;7.75;;
48092;SDS011;33873;47.442;18.902;2022-08-14T07:15:31;10.77;;;7.30;;
48092;SDS011;33873;47.442;18.902;2022-08-14T07:18:06;10.20;;;7.15;;
48092;SDS011;33873;47.442;18.902;2022-08-14T07:20:36;12.52;;;7.10;;
48092;SDS011;33873;47.442;18.902;2022-08-14T07:23:05;10.30;;;8.10;;
48092;SDS011;33873;47.442;18.902;2022-08-14T07:25:46;9.80;;;6.93;;
48092;SDS011;33873;47.442;18.902;2022-08-14T07:28:17;8.55;;;6.60;;
48092;SDS011;33873;47.442;18.902;2022-08-14T07:30:48;9.52;;;6.65;;
48092;SDS011;33873;47.442;18.902;2022-08-14T07:33:19;12.20;;;7.32;;
48092;SDS011;33873;47.442;18.902;2022-08-14T07:35:56;9.48;;;7.00;;
48092;SDS011;33873;47.442;18.902;2022-08-14T07:38:26;10.40;;;7.28;;
48092;SDS011;33873;47.442;18.902;2022-08-14T07:41:03;10.43;;;7.40;;
48092;SDS011;33873;47.442;18.902;2022-08-14T07:43:38;9.38;;;7.30;;
48092;SDS011;33873;47.442;18.902;2022-08-14T07:46:07;9.20;;;7.18;;
48092;SDS011;33873;47.442;18.902;2022-08-14T07:48:39;10.32;;;7.43;;
48092;SDS011;33873;47.442;18.902;2022-08-14T07:51:08;9.93;;;7.15;;
48092;SDS011;33873;47.442;18.902;2022-08-14T07:53:38;8.95;;;7.00;;
48092;SDS011;33873;47.442;18.902;2022-08-14T07:56:07;11.43;;;8.15;;
48092;SDS011;33873;47.442;18.902;2022-08-14T07:58:58;10.13;;;7.12;;
48092;SDS011;33873;47.442;18.902;2022-08-14T08:01:26;10.57;;;6.78;;
48092;SDS011;33873;47.442;18.902;2022-08-14T08:03:56;10.05;;;6.78;;
48092;SDS011;33873;47.442;18.902;2022-08-14T08:06:29;13.82;;;7.37;;
48092;SDS011;33873;47.442;18.902;2022-08-14T08:08:58;12.77;;;7.57;;
48092;SDS011;33873;47.442;18.902;2022-08-14T08:11:33;9.60;;;7.60;;
48092;SDS011;33873;47.442;18.902;2022-08-14T08:16:46;10.18;;;7.32;;
48092;SDS011;33873;47.442;18.902;2022-08-14T08:19:17;9.82;;;7.20;;
48092;SDS011;33873;47.442;18.902;2022-08-14T08:21:45;10.30;;;7.37;;
48092;SDS011;33873;47.442;18.902;2022-08-14T08:24:13;9.07;;;6.87;;
48092;SDS011;33873;47.442;18.902;2022-08-14T08:26:47;9.70;;;7.18;;
48092;SDS011;33873;47.442;18.902;2022-08-14T08:29:17;11.45;;;7.35;;
48092;SDS011;33873;47.442;18.902;2022-08-14T08:31:55;9.15;;;6.60;;
48092;SDS011;33873;47.442;18.902;2022-08-14T08:34:41;19.23;;;8.10;;
48092;SDS011;33873;47.442;18.902;2022-08-14T08:37:12;11.85;;;6.80;;
48092;SDS011;33873;47.442;18.902;2022-08-14T08:39:41;11.48;;;6.60;;
48092;SDS011;33873;47.442;18.902;2022-08-14T08:42:30;10.75;;;7.15;;
48092;SDS011;33873;47.442;18.902;2022-08-14T08:45:09;10.02;;;6.87;;
48092;SDS011;33873;47.442;18.902;2022-08-14T08:47:39;8.30;;;6.62;;
48092;SDS011;33873;47.442;18.902;2022-08-14T08:52:58;10.55;;;6.90;;
48092;SDS011;33873;47.442;18.902;2022-08-14T08:58:01;9.63;;;7.40;;
48092;SDS011;33873;47.442;18.902;2022-08-14T09:00:39;9.40;;;7.22;;
48092;SDS011;33873;47.442;18.902;2022-08-14T09:03:10;11.88;;;6.45;;
48092;SDS011;33873;47.442;18.902;2022-08-14T09:05:50;10.00;;;7.35;;
48092;SDS011;33873;47.442;18.902;2022-08-14T09:08:23;9.85;;;7.50;;
48092;SDS011;33873;47.442;18.902;2022-08-14T09:11:03;13.05;;;7.70;;
48092;SDS011;33873;47.442;18.902;2022-08-14T09:13:48;11.40;;;7.30;;
48092;SDS011;33873;47.442;18.902;2022-08-14T09:16:20;11.00;;;7.12;;
48092;SDS011;33873;47.442;18.902;2022-08-14T09:18:51;10.23;;;6.93;;
48092;SDS011;33873;47.442;18.902;2022-08-14T09:21:20;11.85;;;7.68;;
48092;SDS011;33873;47.442;18.902;2022-08-14T09:23:53;9.93;;;7.28;;
48092;SDS011;33873;47.442;18.902;2022-08-14T09:26:42;12.05;;;7.80;;
48092;SDS011;33873;47.442;18.902;2022-08-14T09:29:16;9.63;;;7.57;;
48092;SDS011;33873;47.442;18.902;2022-08-14T09:31:51;10.48;;;7.68;;
48092;SDS011;33873;47.442;18.902;2022-08-14T09:37:21;9.18;;;6.93;;
48092;SDS011;33873;47.442;18.902;2022-08-14T09:40:37;9.80;;;7.05;;
48092;SDS011;33873;47.442;18.902;2022-08-14T09:45:57;10.60;;;5.90;;
48092;SDS011;33873;47.442;18.902;2022-08-14T09:48:29;9.80;;;7.05;;
48092;SDS011;33873;47.442;18.902;2022-08-14T09:50:58;8.30;;;5.80;;
48092;SDS011;33873;47.442;18.902;2022-08-14T09:53:33;9.50;;;6.05;;
48092;SDS011;33873;47.442;18.902;2022-08-14T09:56:41;8.40;;;5.93;;
48092;SDS011;33873;47.442;18.902;2022-08-14T09:59:12;8.27;;;5.93;;
48092;SDS011;33873;47.442;18.902;2022-08-14T10:01:43;7.95;;;6.07;;
48092;SDS011;33873;47.442;18.902;2022-08-14T10:04:20;7.60;;;5.20;;
48092;SDS011;33873;47.442;18.902;2022-08-14T10:07:06;8.05;;;5.78;;
48092;SDS011;33873;47.442;18.902;2022-08-14T10:09:45;6.53;;;4.72;;
48092;SDS011;33873;47.442;18.902;2022-08-14T10:12:44;9.32;;;4.50;;
48092;SDS011;33873;47.442;18.902;2022-08-14T10:15:20;7.28;;;4.28;;
48092;SDS011;33873;47.442;18.902;2022-08-14T10:18:01;7.00;;;5.12;;
48092;SDS011;33873;47.442;18.902;2022-08-14T10:20:31;7.62;;;5.00;;
48092;SDS011;33873;47.442;18.902;2022-08-14T10:23:11;6.95;;;5.15;;
48092;SDS011;33873;47.442;18.902;2022-08-14T10:25:49;7.20;;;5.10;;
48092;SDS011;33873;47.442;18.902;2022-08-14T10:28:20;8.85;;;4.85;;
48092;SDS011;33873;47.442;18.902;2022-08-14T10:31:42;7.25;;;5.22;;
48092;SDS011;33873;47.442;18.902;2022-08-14T10:34:12;7.78;;;5.47;;
48092;SDS011;33873;47.442;18.902;2022-08-14T10:36:45;11.30;;;6.15;;
48092;SDS011;33873;47.442;18.902;2022-08-14T10:39:28;10.23;;;5.10;;
48092;SDS011;33873;47.442;18.902;2022-08-14T10:41:59;8.55;;;5.10;;
48092;SDS011;33873;47.442;18.902;2022-08-14T10:44:48;8.43;;;5.37;;
48092;SDS011;33873;47.442;18.902;2022-08-14T10:47:19;7.50;;;5.18;;
48092;SDS011;33873;47.442;18.902;2022-08-14T10:50:06;8.48;;;4.78;;
48092;SDS011;33873;47.442;18.902;2022-08-14T10:52:41;8.77;;;5.37;;
48092;SDS011;33873;47.442;18.902;2022-08-14T11:00:22;6.47;;;4.78;;
48092;SDS011;33873;47.442;18.902;2022-08-14T11:03:03;10.38;;;4.80;;
48092;SDS011;33873;47.442;18.902;2022-08-14T11:05:47;6.07;;;4.37;;
48092;SDS011;33873;47.442;18.902;2022-08-14T11:08:29;6.45;;;4.78;;
48092;SDS011;33873;47.442;18.902;2022-08-14T11:10:58;6.05;;;4.28;;
48092;SDS011;33873;47.442;18.902;2022-08-14T11:13:30;6.82;;;4.53;;
48092;SDS011;33873;47.442;18.902;2022-08-14T11:15:59;7.32;;;4.70;;
48092;SDS011;33873;47.442;18.902;2022-08-14T11:18:28;7.43;;;4.72;;
48092;SDS011;33873;47.442;18.902;2022-08-14T11:21:06;6.82;;;3.97;;
48092;SDS011;33873;47.442;18.902;2022-08-14T11:23:36;8.10;;;4.15;;
48092;SDS011;33873;47.442;18.902;2022-08-14T11:26:11;6.28;;;4.47;;
48092;SDS011;33873;47.442;18.902;2022-08-14T11:28:42;6.87;;;4.75;;
48092;SDS011;33873;47.442;18.902;2022-08-14T11:31:18;7.20;;;5.07;;
48092;SDS011;33873;47.442;18.902;2022-08-14T11:33:49;7.03;;;4.95;;
48092;SDS011;33873;47.442;18.902;2022-08-14T11:36:21;6.57;;;4.70;;
48092;SDS011;33873;47.442;18.902;2022-08-14T11:39:01;6.87;;;4.82;;
48092;SDS011;33873;47.442;18.902;2022-08-14T11:41:36;7.22;;;4.93;;
48092;SDS011;33873;47.442;18.902;2022-08-14T11:44:12;9.15;;;5.40;;
48092;SDS011;33873;47.442;18.902;2022-08-14T11:47:02;6.68;;;4.72;;
48092;SDS011;33873;47.442;18.902;2022-08-14T11:49:33;9.98;;;5.28;;
48092;SDS011;33873;47.442;18.902;2022-08-14T11:52:01;8.00;;;5.30;;
48092;SDS011;33873;47.442;18.902;2022-08-14T11:54:29;8.60;;;5.18;;
48092;SDS011;33873;47.442;18.902;2022-08-14T11:57:01;7.95;;;4.45;;
48092;SDS011;33873;47.442;18.902;2022-08-14T11:59:31;6.32;;;4.60;;
48092;SDS011;33873;47.442;18.902;2022-08-14T12:02:13;6.90;;;4.95;;
48092;SDS011;33873;47.442;18.902;2022-08-14T12:05:02;7.43;;;4.82;;
48092;SDS011;33873;47.442;18.902;2022-08-14T12:07:35;8.35;;;5.47;;
48092;SDS011;33873;47.442;18.902;2022-08-14T12:10:16;6.87;;;5.07;;
48092;SDS011;33873;47.442;18.902;2022-08-14T12:12:53;7.03;;;5.05;;
48092;SDS011;33873;47.442;18.902;2022-08-14T12:15:32;7.25;;;4.60;;
48092;SDS011;33873;47.442;18.902;2022-08-14T12:18:02;8.50;;;4.90;;
48092;SDS011;33873;47.442;18.902;2022-08-14T12:20:39;7.45;;;4.40;;
48092;SDS011;33873;47.442;18.902;2022-08-14T12:23:22;6.18;;;4.18;;
48092;SDS011;33873;47.442;18.902;2022-08-14T12:26:04;5.85;;;3.85;;
48092;SDS011;33873;47.442;18.902;2022-08-14T12:29:06;7.85;;;4.62;;
48092;SDS011;33873;47.442;18.902;2022-08-14T12:31:35;8.02;;;5.15;;
48092;SDS011;33873;47.442;18.902;2022-08-14T12:34:13;9.30;;;5.15;;
48092;SDS011;33873;47.442;18.902;2022-08-14T12:36:49;5.30;;;4.12;;
48092;SDS011;33873;47.442;18.902;2022-08-14T12:39:29;6.45;;;4.75;;
48092;SDS011;33873;47.442;18.902;2022-08-14T12:42:07;6.30;;;4.87;;
48092;SDS011;33873;47.442;18.902;2022-08-14T12:44:38;10.48;;;5.05;;
48092;SDS011;33873;47.442;18.902;2022-08-14T12:47:11;7.07;;;5.03;;
48092;SDS011;33873;47.442;18.902;2022-08-14T12:49:49;9.93;;;5.20;;
48092;SDS011;33873;47.442;18.902;2022-08-14T12:55:28;8.15;;;4.97;;
48092;SDS011;33873;47.442;18.902;2022-08-14T12:58:19;8.23;;;4.32;;
48092;SDS011;33873;47.442;18.902;2022-08-14T13:01:02;7.95;;;4.97;;
48092;SDS011;33873;47.442;18.902;2022-08-14T13:03:43;9.02;;;4.87;;
48092;SDS011;33873;47.442;18.902;2022-08-14T13:06:11;8.13;;;4.97;;
48092;SDS011;33873;47.442;18.902;2022-08-14T13:08:41;7.12;;;5.10;;
48092;SDS011;33873;47.442;18.902;2022-08-14T13:11:19;6.40;;;4.85;;
48092;SDS011;33873;47.442;18.902;2022-08-14T13:13:50;7.47;;;5.18;;
48092;SDS011;33873;47.442;18.902;2022-08-14T13:16:22;6.90;;;4.68;;
48092;SDS011;33873;47.442;18.902;2022-08-14T13:19:06;8.35;;;5.03;;
48092;SDS011;33873;47.442;18.902;2022-08-14T13:21:38;8.88;;;5.20;;
48092;SDS011;33873;47.442;18.902;2022-08-14T13:24:26;6.37;;;4.55;;
48092;SDS011;33873;47.442;18.902;2022-08-14T13:26:55;8.40;;;4.93;;
48092;SDS011;33873;47.442;18.902;2022-08-14T13:29:27;8.27;;;4.95;;
48092;SDS011;33873;47.442;18.902;2022-08-14T13:31:57;7.62;;;5.20;;
48092;SDS011;33873;47.442;18.902;2022-08-14T13:34:27;8.82;;;6.03;;
48092;SDS011;33873;47.442;18.902;2022-08-14T13:36:55;7.25;;;4.78;;
48092;SDS011;33873;47.442;18.902;2022-08-14T13:39:30;5.90;;;4.45;;
48092;SDS011;33873;47.442;18.902;2022-08-14T13:42:03;7.80;;;4.53;;
48092;SDS011;33873;47.442;18.902;2022-08-14T13:44:40;6.93;;;5.30;;
48092;SDS011;33873;47.442;18.902;2022-08-14T13:47:09;7.32;;;5.30;;
48092;SDS011;33873;47.442;18.902;2022-08-14T13:49:41;6.53;;;4.65;;
48092;SDS011;33873;47.442;18.902;2022-08-14T13:52:24;7.53;;;5.15;;
48092;SDS011;33873;47.442;18.902;2022-08-14T13:55:13;6.85;;;4.55;;
48092;SDS011;33873;47.442;18.902;2022-08-14T13:57:41;7.25;;;5.18;;
48092;SDS011;33873;47.442;18.902;2022-08-14T14:00:30;8.00;;;4.90;;
48092;SDS011;33873;47.442;18.902;2022-08-14T14:03:20;9.55;;;4.93;;
48092;SDS011;33873;47.442;18.902;2022-08-14T14:05:51;8.73;;;5.43;;
48092;SDS011;33873;47.442;18.902;2022-08-14T14:08:22;8.35;;;5.00;;
48092;SDS011;33873;47.442;18.902;2022-08-14T14:11:10;7.12;;;4.93;;
48092;SDS011;33873;47.442;18.902;2022-08-14T14:13:43;9.32;;;5.25;;
48092;SDS011;33873;47.442;18.902;2022-08-14T14:16:13;7.43;;;5.05;;
48092;SDS011;33873;47.442;18.902;2022-08-14T14:18:56;7.23;;;5.20;;
48092;SDS011;33873;47.442;18.902;2022-08-14T14:21:35;7.78;;;4.95;;
48092;SDS011;33873;47.442;18.902;2022-08-14T14:24:03;7.78;;;5.03;;
48092;SDS011;33873;47.442;18.902;2022-08-14T14:26:33;8.10;;;5.00;;
48092;SDS011;33873;47.442;18.902;2022-08-14T14:29:02;7.00;;;4.72;;
48092;SDS011;33873;47.442;18.902;2022-08-14T14:31:34;7.03;;;4.90;;
48092;SDS011;33873;47.442;18.902;2022-08-14T14:34:06;7.18;;;4.72;;
48092;SDS011;33873;47.442;18.902;2022-08-14T14:36:56;6.65;;;4.40;;
48092;SDS011;33873;47.442;18.902;2022-08-14T14:39:29;5.30;;;3.80;;
48092;SDS011;33873;47.442;18.902;2022-08-14T14:42:20;7.30;;;4.75;;
48092;SDS011;33873;47.442;18.902;2022-08-14T14:45:03;6.57;;;4.12;;
48092;SDS011;33873;47.442;18.902;2022-08-14T14:47:35;7.00;;;4.10;;
48092;SDS011;33873;47.442;18.902;2022-08-14T14:50:02;6.68;;;4.45;;
48092;SDS011;33873;47.442;18.902;2022-08-14T14:52:30;5.72;;;4.22;;
48092;SDS011;33873;47.442;18.902;2022-08-14T14:55:04;7.12;;;4.55;;
48092;SDS011;33873;47.442;18.902;2022-08-14T14:57:33;6.50;;;4.22;;
48092;SDS011;33873;47.442;18.902;2022-08-14T15:00:07;5.65;;;3.90;;
48092;SDS011;33873;47.442;18.902;2022-08-14T15:02:43;7.57;;;4.03;;
48092;SDS011;33873;47.442;18.902;2022-08-14T15:05:18;6.18;;;4.15;;
48092;SDS011;33873;47.442;18.902;2022-08-14T15:07:47;5.30;;;3.40;;
48092;SDS011;33873;47.442;18.902;2022-08-14T15:10:17;6.68;;;3.42;;
48092;SDS011;33873;47.442;18.902;2022-08-14T15:12:58;4.93;;;3.37;;
48092;SDS011;33873;47.442;18.902;2022-08-14T15:15:33;7.07;;;3.40;;
48092;SDS011;33873;47.442;18.902;2022-08-14T15:18:04;6.37;;;3.42;;
48092;SDS011;33873;47.442;18.902;2022-08-14T15:20:54;6.37;;;4.10;;
48092;SDS011;33873;47.442;18.902;2022-08-14T15:23:24;5.47;;;3.65;;
48092;SDS011;33873;47.442;18.902;2022-08-14T15:26:14;5.47;;;3.78;;
48092;SDS011;33873;47.442;18.902;2022-08-14T15:28:59;5.20;;;3.50;;
48092;SDS011;33873;47.442;18.902;2022-08-14T15:31:34;7.07;;;3.58;;
48092;SDS011;33873;47.442;18.902;2022-08-14T15:34:03;9.15;;;3.35;;
48092;SDS011;33873;47.442;18.902;2022-08-14T15:36:57;6.50;;;3.50;;
48092;SDS011;33873;47.442;18.902;2022-08-14T15:39:25;5.95;;;3.40;;
48092;SDS011;33873;47.442;18.902;2022-08-14T15:42:00;5.75;;;3.47;;
48092;SDS011;33873;47.442;18.902;2022-08-14T15:44:29;6.55;;;3.60;;